首页
METAR-TAF:

METAR-TAF

机场 :

Chicago Executive Airport

Wheeling / Prospect Heights, 伊利诺伊州, 美国

纬度: 42-07-15N, 经度: 087-54-17W, 海拔: 197米

当前天气观测

该预报发布于1小时和3分钟前的19:52 UTC
风速13节,风向西转西北,有时为20节阵风
温度 24°C
湿度 41%
气压 1016 hPa
能見度: 16.1公里
少量云层高于6000英尺

METAR: KPWK 231952Z 29013G20KT 10SM FEW060 24/10 A3001 RMK AO2 SLP158 T02390100

时间: 15:55 (20:55 UTC)


TAF: 丢失

超过4000个机场的气象观测和天气预报(METAR&TAF报告)。

可查询的气象台以黄色和红色小点在地图上表示。

将鼠标移到小点上方,可查看气象台名称。

然后点击查看天气观测和预报。

如需切换地图:点击带黑十字的绿色按钮放大地图;点击带横线的绿色按钮缩小地图;或者点击绿色箭头查看邻近地区的地图。


METAR-TAF: